Main page
METAR-TAF:

METAR-TAF

Airports :

Monte Dourado Airport

Almeirim, Pará, Brazil

latitude: 00-53-23S, longitude: 052-36-08W, elevation: 206 m

Current weather observation

The report was made 42 minutes ago, at 17:00 UTC
Wind 5 kt from the Northeast
Temperature 29°C
Humidity 74%
Pressure 1013 hPa
Visibility 10 km or more
Scattered clouds at a height of 1700 ft
Broken clouds at a height of 7000 ft

METAR: SBMD 221700Z 04005KT 9999 SCT017 BKN070 29/24 Q1013

Time: 14:42 (17:42 UTC)


TAF: missing

Weather observations and forecasts of more than 4000 airports (METAR and TAF reports).

The available stations are represented by yellow and red dots on the map.

Hover mouse over dot to see the name of the station.

Then click to see weather observations and forecasts.

To change the map : click on the green buttons with a black cross to zoom in, on the green button with a dash to zoom out, or on the green arrows for adjacent maps.


METAR-TAF: